Time;durP1;ratioP1;P1;durP2;ratioP2;P2;SDS_P1;SDS_P2;PMS_P1;PMS_P2;Temp;Humidity;BMP_temperature;BMP_pressure;BME280_temperature;BME280_humidity;BME280_pressure;Samples;Min_cycle;Max_cycle;Signal;HPM_P1;HPM_P2
2022/12/20 00:00:33;;;;;;;;;;;;;;;;;;5072490;28;20009;-63
2022/12/20 00:03:00;;;;;;;;;;;;;;;;;;5059941;28;19970;-73
2022/12/20 00:05:27;;;;;;;;;;;;;;;;;;5052461;28;20007;-59
2022/12/20 00:07:53;;;;;;;;;;;;;;;;;;5052415;28;19938;-56
2022/12/20 00:10:20;;;;;;;;;;;;;;;;;;5052888;28;20440;-57
2022/12/20 00:12:48;;;;;;;;;;;;;;;;;;5052405;28;20448;-54
2022/12/20 00:15:15;;;;;;;;;;;;;;;;;;5052419;28;19975;-55
2022/12/20 00:17:41;;;;;;;;;;;;;;;;;;5052773;28;20301;-57
2022/12/20 00:20:09;;;;;;;;;;;;;;;;;;5052273;28;19940;-57
2022/12/20 00:22:35;;;;;;;;;;;;;;;;;;5053326;28;19924;-53
2022/12/20 00:25:02;;;;;;;;;;;;;;;;;;5051944;28;19928;-58
2022/12/20 00:27:29;;;;;;;;;;;;;;;;;;5052317;28;20443;-57
2022/12/20 00:29:56;;;;;;;;;;;;;;;;;;5052271;28;19971;-58
2022/12/20 00:32:23;;;;;;;;;;;;;;;;;;5051747;28;19983;-58
2022/12/20 00:34:50;;;;;;;;;;;;;;;;;;5067203;28;19928;-52
2022/12/20 00:37:16;;;;;;;;;;;;;;;;;;5064649;28;19986;-57
2022/12/20 00:39:43;;;;;;;;;;;;;;;;;;5066764;28;20352;-58
2022/12/20 00:42:09;;;;;;;;;;;;;;;;;;5064723;28;19924;-57
2022/12/20 00:44:36;;;;;;;;;;;;;;;;;;5062022;28;20001;-56
2022/12/20 00:47:04;;;;;;;;;;;;;;;;;;5054479;28;19979;-56
2022/12/20 00:49:30;;;;;;;;;;;;;;;;;;5055679;28;19998;-55
2022/12/20 00:51:57;;;;;;;;;;;;;;;;;;5060686;28;19924;-58
2022/12/20 00:54:24;;;;;;;;;;;;;;;;;;5064938;28;19925;-55
2022/12/20 00:56:51;;;;;;;;;;;;;;;;;;5067667;28;19924;-57
2022/12/20 00:59:17;;;;;;;;;;;;;;;;;;5072441;28;19948;-56
2022/12/20 01:01:44;;;;;;;;;;;;;;;;;;5073231;28;19925;-58
2022/12/20 01:04:12;;;;;;;;;;;;;;;;;;5067389;28;20007;-57
2022/12/20 01:06:39;;;;;;;;;;;;;;;;;;5053224;28;19925;-54
2022/12/20 01:09:06;;;;;;;;;;;;;;;;;;5053287;28;19939;-57
2022/12/20 01:11:33;;;;;;;;;;;;;;;;;;5053151;28;19928;-58
2022/12/20 01:14:01;;;;;;;;;;;;;;;;;;5052963;28;19924;-58
2022/12/20 01:16:28;;;;;;;;;;;;;;;;;;5052825;28;20361;-59
2022/12/20 01:18:55;;;;;;;;;;;;;;;;;;5052859;28;20338;-56
2022/12/20 01:21:24;;;;;;;;;;;;;;;;;;5052500;28;19979;-56
2022/12/20 01:23:51;;;;;;;;;;;;;;;;;;5052828;28;19924;-58
2022/12/20 01:26:18;;;;;;;;;;;;;;;;;;5052825;28;19924;-56
2022/12/20 01:28:45;;;;;;;;;;;;;;;;;;5054358;28;20283;-61
2022/12/20 01:31:13;;;;;;;;;;;;;;;;;;5052493;28;19925;-59
2022/12/20 01:33:40;;;;;;;;;;;;;;;;;;5052447;28;20637;-58
2022/12/20 01:36:08;;;;;;;;;;;;;;;;;;5052546;28;19925;-60
2022/12/20 01:38:36;;;;;;;;;;;;;;;;;;5052939;28;20517;-58
2022/12/20 01:41:03;;;;;;;;;;;;;;;;;;5072272;28;19970;-58
2022/12/20 01:43:45;;;;;;;;;;;;;;;;;;5072441;28;19924;-60
2022/12/20 01:46:11;;;;;;;;;;;;;;;;;;5072211;28;19925;-59
2022/12/20 01:48:38;;;;;;;;;;;;;;;;;;5072439;28;19928;-58
2022/12/20 01:51:05;;;;;;;;;;;;;;;;;;5071896;28;20041;-59
2022/12/20 01:53:32;;;;;;;;;;;;;;;;;;5072410;28;19931;-59
2022/12/20 01:56:01;;;;;;;;;;;;;;;;;;5072306;28;19974;-60
2022/12/20 01:58:28;;;;;;;;;;;;;;;;;;5072366;28;20023;-59
2022/12/20 02:00:54;;;;;;;;;;;;;;;;;;5072089;28;19982;-60
2022/12/20 02:03:21;;;;;;;;;;;;;;;;;;5072242;28;19924;-60
2022/12/20 02:05:48;;;;;;;;;;;;;;;;;;5072404;28;19930;-59
2022/12/20 02:08:16;;;;;;;;;;;;;;;;;;5072067;28;20002;-58
2022/12/20 02:10:50;;;;;;;;;;;;;;;;;;5072096;28;19990;-59
2022/12/20 02:13:24;;;;;;;;;;;;;;;;;;5072018;28;19950;-59
2022/12/20 02:15:53;;;;;;;;;;;;;;;;;;5072191;28;19928;-60
2022/12/20 02:18:22;;;;;;;;;;;;;;;;;;5071878;28;19929;-60
2022/12/20 02:20:59;;;;;;;;;;;;;;;;;;5071900;28;20301;-59
2022/12/20 02:23:44;;;;;;;;;;;;;;;;;;5071852;28;19924;-60
2022/12/20 02:26:20;;;;;;;;;;;;;;;;;;5072385;28;20331;-59
2022/12/20 02:28:56;;;;;;;;;;;;;;;;;;5072128;28;19925;-60
2022/12/20 02:31:26;;;;;;;;;;;;;;;;;;5071949;28;19974;-60
2022/12/20 02:33:53;;;;;;;;;;;;;;;;;;5071902;28;19928;-59
2022/12/20 02:36:20;;;;;;;;;;;;;;;;;;5071810;28;19981;-60
2022/12/20 02:38:46;;;;;;;;;;;;;;;;;;5071822;28;20366;-60
2022/12/20 02:41:18;;;;;;;;;;;;;;;;;;5072018;28;20305;-58
2022/12/20 02:46:32;;;;;;;;;;;;;;;;;;5071880;28;19936;-57
2022/12/20 02:49:01;;;;;;;;;;;;;;;;;;5071613;28;19924;-57
2022/12/20 02:51:28;;;;;;;;;;;;;;;;;;5070992;28;19925;-57
2022/12/20 02:53:55;;;;;;;;;;;;;;;;;;5071460;28;19924;-57
2022/12/20 02:56:27;;;;;;;;;;;;;;;;;;5071535;28;19970;-58
2022/12/20 02:58:55;;;;;;;;;;;;;;;;;;5071475;28;20313;-58
2022/12/20 03:01:23;;;;;;;;;;;;;;;;;;5070988;28;20397;-58
2022/12/20 03:03:51;;;;;;;;;;;;;;;;;;5054497;28;19929;-58
2022/12/20 03:06:18;;;;;;;;;;;;;;;;;;5071693;28;19932;-58
2022/12/20 03:08:44;;;;;;;;;;;;;;;;;;5071451;28;19928;-59
2022/12/20 03:11:11;;;;;;;;;;;;;;;;;;5071161;28;20312;-59
2022/12/20 03:13:37;;;;;;;;;;;;;;;;;;5071321;28;19939;-55
2022/12/20 03:16:04;;;;;;;;;;;;;;;;;;5070300;28;19981;-58
2022/12/20 03:18:30;;;;;;;;;;;;;;;;;;5071351;28;19929;-59
2022/12/20 03:20:58;;;;;;;;;;;;;;;;;;5071646;28;20336;-59
2022/12/20 03:23:25;;;;;;;;;;;;;;;;;;5073364;28;19925;-56
2022/12/20 03:25:51;;;;;;;;;;;;;;;;;;5074838;28;19978;-58
2022/12/20 03:28:18;;;;;;;;;;;;;;;;;;5074719;28;19931;-58
2022/12/20 03:30:44;;;;;;;;;;;;;;;;;;5074752;28;19986;-59
2022/12/20 03:33:11;;;;;;;;;;;;;;;;;;5074700;28;19928;-58
2022/12/20 03:35:38;;;;;;;;;;;;;;;;;;5074964;28;19958;-59
2022/12/20 03:38:06;;;;;;;;;;;;;;;;;;5075072;28;19997;-59
2022/12/20 03:40:33;;;;;;;;;;;;;;;;;;5061812;28;20443;-59
2022/12/20 03:42:59;;;;;;;;;;;;;;;;;;5054294;28;19931;-57
2022/12/20 03:45:26;;;;;;;;;;;;;;;;;;5054695;28;19924;-58
2022/12/20 03:47:53;;;;;;;;;;;;;;;;;;5054353;28;19925;-56
2022/12/20 03:50:19;;;;;;;;;;;;;;;;;;5054610;28;19990;-58
2022/12/20 03:52:46;;;;;;;;;;;;;;;;;;5054168;28;19959;-56
2022/12/20 03:55:14;;;;;;;;;;;;;;;;;;5054533;28;19925;-58
2022/12/20 03:57:40;;;;;;;;;;;;;;;;;;5054439;28;19925;-58
2022/12/20 04:00:08;;;;;;;;;;;;;;;;;;5054502;28;20019;-59
2022/12/20 04:02:34;;;;;;;;;;;;;;;;;;5063125;28;19967;-58
2022/12/20 04:05:01;;;;;;;;;;;;;;;;;;5072042;28;19981;-58
2022/12/20 04:07:27;;;;;;;;;;;;;;;;;;5054742;28;19924;-58
2022/12/20 04:09:54;;;;;;;;;;;;;;;;;;5054563;28;19933;-59
2022/12/20 04:12:22;;;;;;;;;;;;;;;;;;5054541;28;19930;-59
2022/12/20 04:14:48;;;;;;;;;;;;;;;;;;5054216;28;19924;-59
2022/12/20 04:17:15;;;;;;;;;;;;;;;;;;5054202;28;19925;-60
2022/12/20 04:19:41;;;;;;;;;;;;;;;;;;5053927;28;19925;-60
2022/12/20 04:22:08;;;;;;;;;;;;;;;;;;5054520;28;19924;-60
2022/12/20 04:24:34;;;;;;;;;;;;;;;;;;5053926;28;19932;-59
2022/12/20 04:27:01;;;;;;;;;;;;;;;;;;5054114;28;19928;-60
2022/12/20 04:29:29;;;;;;;;;;;;;;;;;;5053804;28;19940;-60
2022/12/20 04:31:55;;;;;;;;;;;;;;;;;;5053920;28;19980;-60
2022/12/20 04:34:22;;;;;;;;;;;;;;;;;;5052933;28;19924;-60
2022/12/20 04:36:48;;;;;;;;;;;;;;;;;;5053865;28;19928;-59
2022/12/20 04:39:15;;;;;;;;;;;;;;;;;;5053868;28;20348;-59
2022/12/20 04:41:41;;;;;;;;;;;;;;;;;;5053725;28;19925;-60
2022/12/20 04:44:08;;;;;;;;;;;;;;;;;;5053570;28;20381;-60
2022/12/20 04:46:36;;;;;;;;;;;;;;;;;;5053701;28;19925;-60
2022/12/20 04:49:02;;;;;;;;;;;;;;;;;;5053291;28;20332;-60
2022/12/20 04:51:29;;;;;;;;;;;;;;;;;;5053530;28;19925;-60
2022/12/20 04:53:55;;;;;;;;;;;;;;;;;;5053195;28;20452;-60
2022/12/20 04:56:22;;;;;;;;;;;;;;;;;;5053368;28;19929;-60
2022/12/20 04:58:50;;;;;;;;;;;;;;;;;;5053254;28;19951;-60
2022/12/20 05:01:16;;;;;;;;;;;;;;;;;;5053073;28;19986;-59
2022/12/20 05:03:45;;;;;;;;;;;;;;;;;;5053173;28;19974;-60
2022/12/20 05:06:11;;;;;;;;;;;;;;;;;;5053260;28;19929;-59
2022/12/20 05:08:38;;;;;;;;;;;;;;;;;;5053226;28;19940;-60
2022/12/20 05:11:05;;;;;;;;;;;;;;;;;;5053107;28;19978;-60
2022/12/20 05:13:31;;;;;;;;;;;;;;;;;;5053078;28;19939;-60
2022/12/20 05:15:58;;;;;;;;;;;;;;;;;;5053151;28;19943;-60
2022/12/20 05:18:25;;;;;;;;;;;;;;;;;;5052854;28;19932;-60
2022/12/20 05:26:16;;;;;;;;;;;;;;;;;;5053265;28;19936;-60
2022/12/20 05:26:25;;;;;;;;;;;;;;;;;;5052849;28;20393;-58
2022/12/20 05:28:52;;;;;;;;;;;;;;;;;;5052798;28;20349;-60
2022/12/20 05:31:19;;;;;;;;;;;;;;;;;;5052687;28;19925;-59
2022/12/20 05:33:45;;;;;;;;;;;;;;;;;;5052787;28;19931;-59
2022/12/20 05:36:13;;;;;;;;;;;;;;;;;;5052799;28;19925;-59
2022/12/20 05:38:40;;;;;;;;;;;;;;;;;;5052540;28;19925;-60
2022/12/20 05:41:07;;;;;;;;;;;;;;;;;;5052667;28;19925;-60
2022/12/20 05:43:34;;;;;;;;;;;;;;;;;;5052351;28;19971;-60
2022/12/20 05:46:00;;;;;;;;;;;;;;;;;;5053075;28;19925;-60
2022/12/20 05:48:27;;;;;;;;;;;;;;;;;;5052764;28;19979;-60
2022/12/20 05:50:53;;;;;;;;;;;;;;;;;;5052376;28;19925;-58
2022/12/20 05:53:21;;;;;;;;;;;;;;;;;;5052448;28;20003;-60
2022/12/20 05:55:49;;;;;;;;;;;;;;;;;;5052476;28;20324;-60
2022/12/20 05:58:16;;;;;;;;;;;;;;;;;;5052451;28;19994;-60
2022/12/20 06:00:43;;;;;;;;;;;;;;;;;;5052376;28;19978;-60
2022/12/20 06:03:10;;;;;;;;;;;;;;;;;;5052039;28;19925;-61
2022/12/20 06:05:37;;;;;;;;;;;;;;;;;;5052604;28;19925;-60
2022/12/20 06:08:04;;;;;;;;;;;;;;;;;;5052050;28;20408;-60
2022/12/20 06:10:33;;;;;;;;;;;;;;;;;;5052436;28;19925;-60
2022/12/20 06:13:00;;;;;;;;;;;;;;;;;;5052251;28;19925;-60
2022/12/20 06:15:26;;;;;;;;;;;;;;;;;;5052714;28;20384;-58
2022/12/20 06:17:53;;;;;;;;;;;;;;;;;;5052151;28;19932;-60
2022/12/20 06:20:20;;;;;;;;;;;;;;;;;;5051985;28;20393;-60
2022/12/20 06:22:46;;;;;;;;;;;;;;;;;;5051989;28;19925;-60
2022/12/20 06:25:14;;;;;;;;;;;;;;;;;;5052051;28;19924;-59
2022/12/20 06:27:42;;;;;;;;;;;;;;;;;;5052269;28;19925;-60
2022/12/20 06:30:09;;;;;;;;;;;;;;;;;;5051900;28;19929;-58
2022/12/20 06:32:36;;;;;;;;;;;;;;;;;;5051877;28;19931;-60
2022/12/20 06:35:02;;;;;;;;;;;;;;;;;;5052011;28;19932;-60
2022/12/20 06:37:29;;;;;;;;;;;;;;;;;;5051973;28;19924;-59
2022/12/20 06:39:55;;;;;;;;;;;;;;;;;;5051667;28;19994;-59
2022/12/20 06:42:22;;;;;;;;;;;;;;;;;;5051828;28;19932;-60
2022/12/20 06:44:50;;;;;;;;;;;;;;;;;;5052215;28;19929;-60
2022/12/20 06:47:16;;;;;;;;;;;;;;;;;;5051785;28;19979;-60
2022/12/20 06:49:43;;;;;;;;;;;;;;;;;;5051592;28;19925;-60
2022/12/20 06:52:10;;;;;;;;;;;;;;;;;;5051593;28;19925;-60
2022/12/20 06:54:36;;;;;;;;;;;;;;;;;;5051767;28;19925;-59
2022/12/20 06:57:03;;;;;;;;;;;;;;;;;;5053976;28;19931;-60
2022/12/20 06:59:29;;;;;;;;;;;;;;;;;;5055769;28;20385;-60
2022/12/20 07:01:57;;;;;;;;;;;;;;;;;;5055670;28;20420;-60
2022/12/20 07:04:24;;;;;;;;;;;;;;;;;;5055635;28;19932;-60
2022/12/20 07:06:50;;;;;;;;;;;;;;;;;;5082808;22;19950;-75
2022/12/20 07:09:17;;;;;;;;;;;;;;;;;;5075380;28;19967;-75
2022/12/20 07:11:43;;;;;;;;;;;;;;;;;;5075174;28;19924;-72
2022/12/20 07:14:10;;;;;;;;;;;;;;;;;;5075718;28;19968;-73
2022/12/20 07:16:36;;;;;;;;;;;;;;;;;;5071902;28;20354;-72
2022/12/20 07:19:04;;;;;;;;;;;;;;;;;;5063215;28;19935;-74
2022/12/20 07:21:31;;;;;;;;;;;;;;;;;;5070071;28;19970;-73
2022/12/20 07:23:58;;;;;;;;;;;;;;;;;;5075228;28;19959;-72
2022/12/20 07:26:24;;;;;;;;;;;;;;;;;;5067830;28;20008;-73
2022/12/20 07:28:51;;;;;;;;;;;;;;;;;;5075115;28;19924;-73
2022/12/20 07:31:17;;;;;;;;;;;;;;;;;;5074920;28;20035;-76
2022/12/20 07:33:43;;;;;;;;;;;;;;;;;;5074698;28;20007;-74
2022/12/20 07:36:12;;;;;;;;;;;;;;;;;;5074907;28;19964;-73
2022/12/20 07:38:39;;;;;;;;;;;;;;;;;;5074764;28;20019;-73
2022/12/20 07:41:07;;;;;;;;;;;;;;;;;;5066109;28;19975;-73
2022/12/20 07:43:34;;;;;;;;;;;;;;;;;;5054601;28;19932;-74
2022/12/20 07:46:01;;;;;;;;;;;;;;;;;;5068792;28;19925;-74
2022/12/20 07:48:27;;;;;;;;;;;;;;;;;;5065254;28;19945;-73
2022/12/20 07:50:56;;;;;;;;;;;;;;;;;;5065278;28;20034;-74
2022/12/20 07:53:25;;;;;;;;;;;;;;;;;;5063188;28;19967;-74
2022/12/20 07:55:52;;;;;;;;;;;;;;;;;;5061832;28;19924;-73
2022/12/20 07:58:19;;;;;;;;;;;;;;;;;;5061856;28;20019;-73
2022/12/20 08:00:46;;;;;;;;;;;;;;;;;;5073825;28;20010;-72
2022/12/20 08:03:14;;;;;;;;;;;;;;;;;;5073781;28;20303;-73
2022/12/20 08:05:42;;;;;;;;;;;;;;;;;;5055910;28;19928;-74
2022/12/20 08:08:10;;;;;;;;;;;;;;;;;;5059672;28;19925;-75
2022/12/20 08:10:38;;;;;;;;;;;;;;;;;;5063187;28;19964;-73
2022/12/20 08:13:06;;;;;;;;;;;;;;;;;;5068152;28;20007;-75
2022/12/20 08:15:33;;;;;;;;;;;;;;;;;;5058103;28;20303;-74
2022/12/20 08:18:00;;;;;;;;;;;;;;;;;;5061928;28;19976;-74
2022/12/20 08:20:26;;;;;;;;;;;;;;;;;;5059951;28;19924;-75
2022/12/20 08:22:52;;;;;;;;;;;;;;;;;;5055361;28;19935;-74
2022/12/20 08:25:20;;;;;;;;;;;;;;;;;;5064126;28;19975;-74
2022/12/20 08:27:49;;;;;;;;;;;;;;;;;;5060938;28;19971;-76
2022/12/20 08:30:15;;;;;;;;;;;;;;;;;;5060137;28;19924;-74
2022/12/20 08:32:42;;;;;;;;;;;;;;;;;;5060763;28;20011;-75
2022/12/20 08:35:08;;;;;;;;;;;;;;;;;;5062597;28;20007;-74
2022/12/20 08:37:35;;;;;;;;;;;;;;;;;;5063295;28;20548;-73
2022/12/20 08:40:21;;;;;;;;;;;;;;;;;;5067791;28;19972;-76
2022/12/20 08:42:49;;;;;;;;;;;;;;;;;;5065277;28;19978;-76
2022/12/20 08:45:17;;;;;;;;;;;;;;;;;;5059547;28;19928;-75
2022/12/20 08:47:44;;;;;;;;;;;;;;;;;;5070262;28;19933;-75
2022/12/20 08:50:12;;;;;;;;;;;;;;;;;;5059757;28;20026;-75
2022/12/20 08:52:39;;;;;;;;;;;;;;;;;;5058792;28;19947;-75
2022/12/20 08:55:05;;;;;;;;;;;;;;;;;;5051756;28;19928;-76
2022/12/20 08:57:32;;;;;;;;;;;;;;;;;;5051257;28;19925;-76
2022/12/20 09:00:00;;;;;;;;;;;;;;;;;;5051925;28;20014;-75
2022/12/20 09:02:26;;;;;;;;;;;;;;;;;;5066347;28;19931;-75
2022/12/20 09:04:53;;;;;;;;;;;;;;;;;;5060295;28;20008;-75
2022/12/20 09:07:19;;;;;;;;;;;;;;;;;;5051994;28;19925;-75
2022/12/20 09:09:46;;;;;;;;;;;;;;;;;;5054077;28;20485;-74
2022/12/20 09:12:12;;;;;;;;;;;;;;;;;;5058748;28;19932;-76
2022/12/20 09:14:39;;;;;;;;;;;;;;;;;;5074069;28;20414;-73
2022/12/20 09:17:07;;;;;;;;;;;;;;;;;;5072223;28;19978;-75
2022/12/20 09:19:33;;;;;;;;;;;;;;;;;;5070791;28;19924;-74
2022/12/20 09:22:00;;;;;;;;;;;;;;;;;;5070783;28;19928;-74
2022/12/20 09:24:26;;;;;;;;;;;;;;;;;;5071261;28;19924;-75
2022/12/20 09:26:52;;;;;;;;;;;;;;;;;;5070498;28;19924;-75
2022/12/20 09:29:19;;;;;;;;;;;;;;;;;;5070837;28;19933;-75
2022/12/20 09:31:45;;;;;;;;;;;;;;;;;;5070773;28;20395;-75
2022/12/20 09:34:14;;;;;;;;;;;;;;;;;;5070978;28;19924;-75
2022/12/20 09:36:40;;;;;;;;;;;;;;;;;;5070728;28;19971;-73
2022/12/20 09:39:06;;;;;;;;;;;;;;;;;;5057304;28;19968;-74
2022/12/20 09:41:36;;;;;;;;;;;;;;;;;;5061399;28;19935;-73
2022/12/20 09:44:05;;;;;;;;;;;;;;;;;;5069223;28;19924;-73
2022/12/20 09:46:32;;;;;;;;;;;;;;;;;;5056845;28;20383;-74
2022/12/20 09:48:58;;;;;;;;;;;;;;;;;;5050777;28;19932;-75
2022/12/20 09:51:36;;;;;;;;;;;;;;;;;;5050367;28;19929;-73
2022/12/20 09:54:07;;;;;;;;;;;;;;;;;;5065887;28;19958;-73
2022/12/20 09:56:35;;;;;;;;;;;;;;;;;;5069699;28;20330;-74
2022/12/20 09:59:03;;;;;;;;;;;;;;;;;;5069580;28;19924;-74
2022/12/20 10:01:31;;;;;;;;;;;;;;;;;;5068996;28;20007;-72
2022/12/20 10:03:58;;;;;;;;;;;;;;;;;;5067948;28;19925;-75
2022/12/20 10:06:33;;;;;;;;;;;;;;;;;;5061021;28;19959;-73
2022/12/20 10:09:02;;;;;;;;;;;;;;;;;;5050223;28;20003;-73
2022/12/20 10:11:35;;;;;;;;;;;;;;;;;;5050060;28;20031;-73
2022/12/20 10:14:07;;;;;;;;;;;;;;;;;;5050624;28;19976;-73
2022/12/20 10:16:38;;;;;;;;;;;;;;;;;;5050075;28;20426;-74
2022/12/20 10:19:12;;;;;;;;;;;;;;;;;;5050051;28;19933;-72
2022/12/20 10:21:41;;;;;;;;;;;;;;;;;;5050742;28;20015;-74
2022/12/20 10:24:13;;;;;;;;;;;;;;;;;;5067557;28;19929;-74
2022/12/20 10:26:40;;;;;;;;;;;;;;;;;;5069566;28;19931;-74
2022/12/20 10:29:06;;;;;;;;;;;;;;;;;;5070161;28;19924;-73
2022/12/20 10:31:34;;;;;;;;;;;;;;;;;;5069478;28;20000;-73
2022/12/20 10:34:01;;;;;;;;;;;;;;;;;;5069917;28;19978;-73
2022/12/20 10:36:28;;;;;;;;;;;;;;;;;;5070522;28;19959;-74
2022/12/20 10:38:55;;;;;;;;;;;;;;;;;;5069571;28;20316;-74
2022/12/20 10:41:24;;;;;;;;;;;;;;;;;;5062789;28;20306;-77
2022/12/20 10:43:53;;;;;;;;;;;;;;;;;;5061271;28;19925;-75
2022/12/20 10:46:19;;;;;;;;;;;;;;;;;;5069482;28;20003;-74
2022/12/20 10:48:46;;;;;;;;;;;;;;;;;;5069380;28;19928;-75
2022/12/20 10:51:14;;;;;;;;;;;;;;;;;;5068331;28;19943;-76
2022/12/20 10:53:50;;;;;;;;;;;;;;;;;;5070225;28;19985;-76
2022/12/20 10:56:19;;;;;;;;;;;;;;;;;;5069787;28;19943;-76
2022/12/20 10:58:53;;;;;;;;;;;;;;;;;;5069594;28;19977;-78
2022/12/20 11:01:22;;;;;;;;;;;;;;;;;;5075676;28;20016;-74
2022/12/20 11:03:50;;;;;;;;;;;;;;;;;;5066389;28;19924;-75
2022/12/20 11:06:17;;;;;;;;;;;;;;;;;;5062080;28;20438;-75
2022/12/20 11:08:43;;;;;;;;;;;;;;;;;;5069645;28;19924;-77
2022/12/20 11:11:12;;;;;;;;;;;;;;;;;;5071605;28;19992;-75
2022/12/20 11:13:39;;;;;;;;;;;;;;;;;;5069888;28;19924;-77
2022/12/20 11:16:21;;;;;;;;;;;;;;;;;;5069988;28;19943;-75
2022/12/20 11:18:51;;;;;;;;;;;;;;;;;;5070199;28;19924;-71
2022/12/20 11:21:22;;;;;;;;;;;;;;;;;;5066890;28;20035;-71
2022/12/20 11:23:50;;;;;;;;;;;;;;;;;;5069658;28;19952;-71
2022/12/20 11:26:25;;;;;;;;;;;;;;;;;;5053235;28;19955;-73
2022/12/20 11:28:59;;;;;;;;;;;;;;;;;;5055563;28;19924;-74
2022/12/20 11:31:32;;;;;;;;;;;;;;;;;;5064592;28;19925;-75
2022/12/20 11:34:03;;;;;;;;;;;;;;;;;;5067345;28;19925;-73
2022/12/20 11:36:34;;;;;;;;;;;;;;;;;;5056103;28;19971;-74
2022/12/20 11:39:05;;;;;;;;;;;;;;;;;;5068807;28;19932;-73
2022/12/20 11:41:36;;;;;;;;;;;;;;;;;;5068816;28;20559;-72
2022/12/20 11:44:09;;;;;;;;;;;;;;;;;;5071700;28;19928;-73
2022/12/20 11:46:48;;;;;;;;;;;;;;;;;;5061380;28;20463;-72
2022/12/20 11:49:35;;;;;;;;;;;;;;;;;;5060006;28;19972;-74
2022/12/20 11:52:04;;;;;;;;;;;;;;;;;;5072280;28;20622;-73
2022/12/20 11:54:33;;;;;;;;;;;;;;;;;;5071668;28;19924;-73
2022/12/20 11:57:02;;;;;;;;;;;;;;;;;;5071943;28;19951;-73
2022/12/20 11:59:36;;;;;;;;;;;;;;;;;;5072058;28;20015;-73
2022/12/20 12:02:09;;;;;;;;;;;;;;;;;;5072298;28;20363;-74
2022/12/20 12:04:39;;;;;;;;;;;;;;;;;;5072185;28;20122;-72
2022/12/20 12:07:08;;;;;;;;;;;;;;;;;;5072236;28;20095;-73
2022/12/20 12:09:36;;;;;;;;;;;;;;;;;;5072133;28;19928;-73
2022/12/20 12:12:04;;;;;;;;;;;;;;;;;;5072517;28;19928;-74
2022/12/20 12:14:35;;;;;;;;;;;;;;;;;;5072841;28;19931;-73
2022/12/20 12:17:06;;;;;;;;;;;;;;;;;;5072124;28;19950;-73
2022/12/20 12:19:36;;;;;;;;;;;;;;;;;;5071985;28;19961;-73
2022/12/20 12:22:06;;;;;;;;;;;;;;;;;;5071895;28;19928;-73
2022/12/20 12:24:34;;;;;;;;;;;;;;;;;;5072102;28;19960;-73
2022/12/20 12:27:02;;;;;;;;;;;;;;;;;;5072424;28;19979;-73
2022/12/20 12:29:29;;;;;;;;;;;;;;;;;;5072129;28;19928;-74
2022/12/20 12:31:58;;;;;;;;;;;;;;;;;;5071944;28;19932;-74
2022/12/20 12:34:32;;;;;;;;;;;;;;;;;;5071367;28;19924;-73
2022/12/20 12:37:16;;;;;;;;;;;;;;;;;;5071791;28;20540;-73
2022/12/20 12:40:02;;;;;;;;;;;;;;;;;;5020905;28;20015;-71
2022/12/20 12:42:46;;;;;;;;;;;;;;;;;;5071380;28;19935;-73
2022/12/20 12:45:15;;;;;;;;;;;;;;;;;;5070305;28;19925;-73
2022/12/20 12:47:45;;;;;;;;;;;;;;;;;;5072099;28;19924;-73
2022/12/20 12:50:18;;;;;;;;;;;;;;;;;;5070972;28;20401;-73
2022/12/20 12:52:49;;;;;;;;;;;;;;;;;;5071524;28;19947;-73
2022/12/20 12:55:34;;;;;;;;;;;;;;;;;;5070274;28;20367;-72
2022/12/20 12:58:13;;;;;;;;;;;;;;;;;;5071353;28;19931;-73
2022/12/20 13:00:49;;;;;;;;;;;;;;;;;;5070164;28;19932;-73
2022/12/20 13:03:16;;;;;;;;;;;;;;;;;;5070776;28;19930;-73
2022/12/20 13:05:42;;;;;;;;;;;;;;;;;;5053479;28;20068;-73
2022/12/20 13:08:15;;;;;;;;;;;;;;;;;;5051865;28;19972;-74
2022/12/20 13:10:56;;;;;;;;;;;;;;;;;;5071388;28;19924;-74
2022/12/20 13:13:24;;;;;;;;;;;;;;;;;;5070818;28;20307;-74
2022/12/20 13:15:52;;;;;;;;;;;;;;;;;;5070771;28;20371;-72
2022/12/20 13:18:28;;;;;;;;;;;;;;;;;;5070584;28;20401;-73
2022/12/20 13:21:13;;;;;;;;;;;;;;;;;;5071036;28;19925;-72
2022/12/20 13:23:39;;;;;;;;;;;;;;;;;;5070685;28;20019;-73
2022/12/20 13:26:37;;;;;;;;;;;;;;;;;;5070551;28;19924;-72
2022/12/20 13:29:18;;;;;;;;;;;;;;;;;;5070361;28;20551;-73
2022/12/20 13:31:46;;;;;;;;;;;;;;;;;;5070353;28;19925;-73
2022/12/20 13:34:28;;;;;;;;;;;;;;;;;;5070586;28;19931;-73
2022/12/20 13:39:57;;;;;;;;;;;;;;;;;;5056450;28;19951;-76
2022/12/20 13:42:31;;;;;;;;;;;;;;;;;;5069504;28;19924;-76
2022/12/20 13:45:01;;;;;;;;;;;;;;;;;;5071127;28;20138;-74
2022/12/20 13:47:40;;;;;;;;;;;;;;;;;;5070252;28;19947;-72
2022/12/20 13:50:24;;;;;;;;;;;;;;;;;;5068891;28;19925;-73
2022/12/20 13:52:51;;;;;;;;;;;;;;;;;;5044510;28;19928;-73
2022/12/20 13:55:24;;;;;;;;;;;;;;;;;;5070357;28;20426;-72
2022/12/20 13:57:51;;;;;;;;;;;;;;;;;;5069723;28;20401;-73
2022/12/20 14:00:19;;;;;;;;;;;;;;;;;;5070977;28;19930;-72
2022/12/20 14:02:47;;;;;;;;;;;;;;;;;;5077292;28;20335;-72
2022/12/20 14:05:15;;;;;;;;;;;;;;;;;;5086565;28;19967;-73
2022/12/20 14:07:43;;;;;;;;;;;;;;;;;;5086490;28;19924;-72
2022/12/20 14:10:16;;;;;;;;;;;;;;;;;;5073994;28;19929;-74
2022/12/20 14:12:44;;;;;;;;;;;;;;;;;;5068008;28;19924;-73
2022/12/20 14:15:21;;;;;;;;;;;;;;;;;;5068319;28;19936;-72
2022/12/20 14:17:48;;;;;;;;;;;;;;;;;;5066093;28;20027;-72
2022/12/20 14:20:16;;;;;;;;;;;;;;;;;;5070092;28;19925;-72
2022/12/20 14:22:49;;;;;;;;;;;;;;;;;;5070065;28;19948;-71
2022/12/20 14:25:17;;;;;;;;;;;;;;;;;;5070319;28;19950;-71
2022/12/20 14:27:44;;;;;;;;;;;;;;;;;;5070302;28;19955;-72
2022/12/20 14:30:25;;;;;;;;;;;;;;;;;;5067065;28;19924;-72
2022/12/20 14:32:54;;;;;;;;;;;;;;;;;;5055441;28;19925;-71
2022/12/20 14:35:20;;;;;;;;;;;;;;;;;;5070120;28;19925;-72
2022/12/20 14:37:52;;;;;;;;;;;;;;;;;;5069223;28;19924;-72
2022/12/20 14:40:20;;;;;;;;;;;;;;;;;;5066975;28;19932;-73
2022/12/20 14:42:46;;;;;;;;;;;;;;;;;;5064777;28;19924;-75
2022/12/20 14:45:18;;;;;;;;;;;;;;;;;;5053515;28;20007;-74
2022/12/20 14:47:48;;;;;;;;;;;;;;;;;;5060779;28;19947;-72
2022/12/20 14:50:18;;;;;;;;;;;;;;;;;;5070867;28;19925;-71
2022/12/20 14:52:45;;;;;;;;;;;;;;;;;;5062946;28;20017;-71
2022/12/20 14:55:15;;;;;;;;;;;;;;;;;;5060264;28;19925;-71
2022/12/20 14:57:44;;;;;;;;;;;;;;;;;;5064910;28;19925;-72
2022/12/20 15:00:13;;;;;;;;;;;;;;;;;;5054898;28;19931;-71
2022/12/20 15:02:41;;;;;;;;;;;;;;;;;;5062395;28;19933;-72
2022/12/20 15:05:09;;;;;;;;;;;;;;;;;;5063316;28;20347;-73
2022/12/20 15:07:40;;;;;;;;;;;;;;;;;;5056766;28;20014;-73
2022/12/20 15:10:07;;;;;;;;;;;;;;;;;;5055050;28;19928;-71
2022/12/20 15:12:34;;;;;;;;;;;;;;;;;;5065104;28;19924;-72
2022/12/20 15:15:03;;;;;;;;;;;;;;;;;;5069385;28;20005;-73
2022/12/20 15:17:30;;;;;;;;;;;;;;;;;;5070829;28;20008;-73
2022/12/20 15:19:56;;;;;;;;;;;;;;;;;;5074161;28;20007;-72
2022/12/20 15:22:23;;;;;;;;;;;;;;;;;;5073581;28;19960;-71
2022/12/20 15:24:50;;;;;;;;;;;;;;;;;;5073577;28;20402;-72
2022/12/20 15:27:17;;;;;;;;;;;;;;;;;;5072681;28;20011;-72
2022/12/20 15:29:43;;;;;;;;;;;;;;;;;;5071638;28;19931;-73
2022/12/20 15:32:15;;;;;;;;;;;;;;;;;;5073146;28;20030;-71
2022/12/20 15:34:42;;;;;;;;;;;;;;;;;;5073074;28;19986;-74
2022/12/20 15:37:12;;;;;;;;;;;;;;;;;;5072663;28;20051;-73
2022/12/20 15:39:38;;;;;;;;;;;;;;;;;;5072292;28;19931;-73
2022/12/20 15:42:06;;;;;;;;;;;;;;;;;;5072226;28;19924;-72
2022/12/20 15:44:34;;;;;;;;;;;;;;;;;;5072836;28;20011;-72
2022/12/20 15:47:01;;;;;;;;;;;;;;;;;;5072733;28;19924;-72
2022/12/20 15:49:29;;;;;;;;;;;;;;;;;;5073002;28;20006;-72
2022/12/20 15:51:55;;;;;;;;;;;;;;;;;;5072358;28;20019;-71
2022/12/20 15:54:23;;;;;;;;;;;;;;;;;;5072899;28;20002;-72
2022/12/20 15:56:50;;;;;;;;;;;;;;;;;;5072643;28;20379;-73
2022/12/20 15:59:18;;;;;;;;;;;;;;;;;;5073118;28;19963;-72
2022/12/20 16:01:44;;;;;;;;;;;;;;;;;;5072075;28;20012;-71
2022/12/20 16:04:14;;;;;;;;;;;;;;;;;;5072545;28;19931;-70
2022/12/20 16:06:40;;;;;;;;;;;;;;;;;;5071827;28;20412;-72
2022/12/20 16:09:07;;;;;;;;;;;;;;;;;;5072558;28;19963;-73
2022/12/20 16:11:34;;;;;;;;;;;;;;;;;;5071803;28;20453;-72
2022/12/20 16:14:00;;;;;;;;;;;;;;;;;;5072762;28;19928;-73
2022/12/20 16:16:29;;;;;;;;;;;;;;;;;;5072128;28;20019;-73
2022/12/20 16:18:57;;;;;;;;;;;;;;;;;;5072556;28;19924;-72
2022/12/20 16:21:24;;;;;;;;;;;;;;;;;;5071899;28;19928;-74
2022/12/20 16:23:51;;;;;;;;;;;;;;;;;;5071995;28;19928;-70
2022/12/20 16:26:18;;;;;;;;;;;;;;;;;;5072478;28;20008;-73
2022/12/20 16:28:45;;;;;;;;;;;;;;;;;;5071904;28;19939;-72
2022/12/20 16:31:22;;;;;;;;;;;;;;;;;;5072404;28;19924;-71
2022/12/20 16:33:50;;;;;;;;;;;;;;;;;;5071400;28;19939;-72
2022/12/20 16:36:16;;;;;;;;;;;;;;;;;;5063706;28;19931;-73
2022/12/20 16:38:43;;;;;;;;;;;;;;;;;;5068174;28;20011;-77
2022/12/20 16:41:13;;;;;;;;;;;;;;;;;;5074049;28;19928;-79
2022/12/20 16:43:39;;;;;;;;;;;;;;;;;;5072500;28;19947;-73
2022/12/20 16:46:06;;;;;;;;;;;;;;;;;;5071387;28;19928;-73
2022/12/20 16:48:33;;;;;;;;;;;;;;;;;;5071862;28;19931;-71
2022/12/20 16:51:01;;;;;;;;;;;;;;;;;;5073172;28;20040;-74
2022/12/20 16:53:27;;;;;;;;;;;;;;;;;;5071500;28;19931;-74
2022/12/20 16:55:54;;;;;;;;;;;;;;;;;;5070891;28;19924;-72
2022/12/20 16:58:21;;;;;;;;;;;;;;;;;;5070777;28;19925;-72
2022/12/20 17:00:48;;;;;;;;;;;;;;;;;;5071410;28;19924;-73
2022/12/20 17:03:14;;;;;;;;;;;;;;;;;;5071186;28;20009;-74